Time;durP1;ratioP1;P1;durP2;ratioP2;P2;SDS_P1;SDS_P2;PMS_P1;PMS_P2;Temp;Humidity;BMP_temperature;BMP_pressure;BME280_temperature;BME280_humidity;BME280_pressure;Samples;Min_cycle;Max_cycle;Signal;HPM_P1;HPM_P2
2023/04/10 00:00:02;;;;;;;1999.90;999.90;;;;;;;3.41;100.00;98619.25;5117974;27;20027;-76
2023/04/10 00:02:28;;;;;;;1999.90;999.90;;;;;;;3.41;100.00;98611.16;5117566;27;20019;-76
2023/04/10 00:04:53;;;;;;;1999.90;999.90;;;;;;;3.40;100.00;98615.72;5135625;27;20084;-79
2023/04/10 00:07:18;;;;;;;1999.90;999.90;;;;;;;3.50;100.00;98609.75;5135447;27;20019;-75
2023/04/10 00:09:44;;;;;;;1999.90;999.90;;;;;;;3.59;100.00;98614.56;5135882;27;20026;-76
2023/04/10 00:12:13;;;;;;;1999.90;999.90;;;;;;;3.53;100.00;98610.09;5136167;27;20030;-75
2023/04/10 00:14:38;;;;;;;1999.90;999.90;;;;;;;3.47;100.00;98611.03;5135807;27;20077;-76
2023/04/10 00:17:04;;;;;;;1999.90;999.90;;;;;;;3.39;100.00;98603.25;5136183;27;20058;-76
2023/04/10 00:19:29;;;;;;;1999.90;999.90;;;;;;;3.39;100.00;98594.31;5127521;27;20026;-76
2023/04/10 00:21:56;;;;;;;1999.90;999.90;;;;;;;3.41;100.00;98608.44;5115280;28;20031;-74
2023/04/10 00:24:21;;;;;;;1999.90;999.90;;;;;;;3.35;100.00;98590.47;5115569;28;20518;-75
2023/04/10 00:26:47;;;;;;;1999.90;999.90;;;;;;;3.34;100.00;98591.50;5116485;28;20055;-76
2023/04/10 00:29:12;;;;;;;1999.90;999.90;;;;;;;3.53;100.00;98598.47;5115718;28;20396;-76
2023/04/10 00:31:37;;;;;;;1999.90;999.90;;;;;;;3.38;100.00;98590.00;5115779;28;20023;-78
2023/04/10 00:34:03;;;;;;;1999.90;999.90;;;;;;;3.37;100.00;98596.44;5116601;28;20110;-76
2023/04/10 00:36:28;;;;;;;1999.90;999.90;;;;;;;3.32;100.00;98609.84;5117415;28;20034;-75
2023/04/10 00:38:53;;;;;;;1999.90;999.90;;;;;;;3.20;100.00;98599.00;5120284;28;20030;-75
2023/04/10 00:41:19;;;;;;;1999.90;999.90;;;;;;;3.18;100.00;98593.84;5115231;28;20020;-76
2023/04/10 00:43:44;;;;;;;1999.90;999.90;;;;;;;3.18;100.00;98599.25;5115551;28;20034;-75
2023/04/10 00:46:10;;;;;;;1999.90;999.90;;;;;;;3.22;100.00;98602.31;5115642;28;20024;-76
2023/04/10 00:48:36;;;;;;;1999.90;999.90;;;;;;;3.21;100.00;98609.59;5116946;28;20057;-75
2023/04/10 00:51:02;;;;;;;1999.90;999.90;;;;;;;3.28;100.00;98597.84;5116208;28;20051;-78
2023/04/10 00:53:27;;;;;;;1999.90;999.90;;;;;;;3.18;100.00;98601.13;5116435;28;20043;-75
2023/04/10 00:55:53;;;;;;;1999.90;999.90;;;;;;;3.13;100.00;98604.50;5119022;28;20043;-84
2023/04/10 00:58:19;;;;;;;1999.90;999.90;;;;;;;3.11;100.00;98603.09;5138091;27;20027;-76
2023/04/10 01:00:46;;;;;;;1999.90;999.90;;;;;;;2.88;100.00;98603.84;5136958;27;20071;-75
2023/04/10 01:03:12;;;;;;;1999.90;999.90;;;;;;;2.80;100.00;98596.06;5117103;27;20048;-74
2023/04/10 01:06:22;;;;;;;1999.90;999.90;;;;;;;2.81;100.00;98605.00;5135568;27;20118;-75
2023/04/10 01:08:56;;;;;;;1999.90;999.90;;;;;;;2.84;100.00;98601.84;5131652;27;20043;-75
2023/04/10 01:11:26;;;;;;;1999.90;999.90;;;;;;;2.98;100.00;98598.72;5135820;27;20511;-74
2023/04/10 01:13:57;;;;;;;1999.90;999.90;;;;;;;2.93;100.00;98601.28;5135357;27;20498;-76
2023/04/10 01:16:35;;;;;;;1999.90;999.90;;;;;;;2.93;100.00;98600.47;5135471;27;20118;-76
2023/04/10 01:19:35;;;;;;;1999.90;999.90;;;;;;;2.99;100.00;98600.38;5135262;27;20556;-76
2023/04/10 01:22:02;;;;;;;1999.90;999.90;;;;;;;2.88;100.00;98603.84;5135191;27;20015;-75
2023/04/10 01:25:00;;;;;;;1999.90;999.90;;;;;;;3.01;100.00;98614.47;5134543;27;20019;-76
2023/04/10 01:27:36;;;;;;;1999.90;999.90;;;;;;;3.00;100.00;98607.44;5089348;27;20381;-75
2023/04/10 01:30:03;;;;;;;1999.90;999.90;;;;;;;2.98;100.00;98604.13;5135022;27;20110;-74
2023/04/10 01:32:34;;;;;;;1999.90;999.90;;;;;;;2.92;100.00;98596.94;5134982;27;20019;-75
2023/04/10 01:35:05;;;;;;;1999.90;999.90;;;;;;;2.88;100.00;98603.03;5135620;27;20498;-75
2023/04/10 01:37:33;;;;;;;1999.90;999.90;;;;;;;2.83;100.00;98611.00;5117093;27;20031;-77
2023/04/10 01:40:02;;;;;;;1999.90;999.90;;;;;;;2.79;100.00;98610.63;5136374;27;20510;-75
2023/04/10 01:42:30;;;;;;;1999.90;999.90;;;;;;;2.71;100.00;98597.44;5135706;27;20038;-75
2023/04/10 01:44:57;;;;;;;1999.90;999.90;;;;;;;2.64;100.00;98596.72;5135271;27;20454;-76
2023/04/10 01:47:24;;;;;;;1999.90;999.90;;;;;;;2.60;100.00;98595.53;5134394;27;20023;-75
2023/04/10 01:49:50;;;;;;;1999.90;999.90;;;;;;;2.77;100.00;98601.94;5134589;27;20076;-75
2023/04/10 01:52:17;;;;;;;1999.90;999.90;;;;;;;2.75;100.00;98595.13;5134560;27;20054;-74
2023/04/10 01:54:47;;;;;;;1999.90;999.90;;;;;;;2.70;100.00;98601.19;5134281;27;20038;-74
2023/04/10 01:57:13;;;;;;;1999.90;999.90;;;;;;;2.68;100.00;98612.25;5134905;27;20023;-77
2023/04/10 01:59:39;;;;;;;1999.90;999.90;;;;;;;2.61;100.00;98607.97;5135210;27;20169;-77
2023/04/10 02:02:06;;;;;;;1999.90;999.90;;;;;;;2.62;100.00;98599.66;5137517;27;20057;-81
2023/04/10 02:04:32;;;;;;;1999.90;999.90;;;;;;;2.67;100.00;98609.75;5135408;27;20476;-75
2023/04/10 02:07:07;;;;;;;1999.90;999.90;;;;;;;2.59;100.00;98605.53;5133370;27;20035;-76
2023/04/10 02:09:51;;;;;;;;;;;;;;;2.52;100.00;98609.34;5131741;27;20538;-75
2023/04/10 02:12:30;;;;;;;1999.90;999.90;;;;;;;2.36;100.00;98609.97;5132926;27;20006;-76
2023/04/10 02:15:00;;;;;;;1999.90;999.90;;;;;;;2.19;100.00;98603.53;5133290;27;20499;-76
2023/04/10 02:17:28;;;;;;;1999.90;999.90;;;;;;;2.28;100.00;98616.50;5133190;27;20425;-75
2023/04/10 02:19:55;;;;;;;1999.90;999.90;;;;;;;2.30;100.00;98616.25;5133171;27;20051;-76
2023/04/10 02:22:23;;;;;;;1999.90;999.90;;;;;;;2.30;100.00;98611.69;5132602;27;20019;-76
2023/04/10 02:24:48;;;;;;;1999.90;999.90;;;;;;;2.29;100.00;98620.03;5133265;27;20043;-75
2023/04/10 02:27:15;;;;;;;1999.90;999.90;;;;;;;2.28;100.00;98624.59;5133846;27;20122;-74
2023/04/10 02:29:40;;;;;;;1999.90;999.90;;;;;;;2.17;100.00;98609.97;5133308;27;20034;-74
2023/04/10 02:32:05;;;;;;;1999.90;999.90;;;;;;;2.29;100.00;98609.25;5114987;27;20023;-75
2023/04/10 02:34:31;;;;;;;1999.90;999.90;;;;;;;2.32;100.00;98595.28;5133107;27;20539;-75
2023/04/10 02:36:56;;;;;;;1999.90;999.90;;;;;;;2.30;100.00;98595.50;5132910;27;20074;-75
2023/04/10 02:39:21;;;;;;;1999.90;999.90;;;;;;;2.23;100.00;98596.63;5132941;27;20024;-75
2023/04/10 02:41:47;;;;;;;1999.90;999.90;;;;;;;2.27;100.00;98612.16;5132985;27;20460;-74
2023/04/10 02:44:12;;;;;;;1999.90;999.90;;;;;;;2.31;100.00;98615.22;5132840;27;20027;-74
2023/04/10 02:46:37;;;;;;;1999.90;999.90;;;;;;;2.19;100.00;98603.53;5132618;27;20064;-75
2023/04/10 02:49:03;;;;;;;1999.90;999.90;;;;;;;2.27;100.00;98612.16;5132422;27;20015;-75
2023/04/10 02:51:28;;;;;;;1999.90;999.90;;;;;;;2.24;100.00;98611.78;5133008;27;20074;-75
2023/04/10 02:53:54;;;;;;;1999.90;999.90;;;;;;;2.23;100.00;98612.81;5114444;27;20023;-75
2023/04/10 02:56:19;;;;;;;1999.90;999.90;;;;;;;2.12;100.00;98604.44;5132980;27;20023;-76
2023/04/10 02:58:46;;;;;;;1999.90;999.90;;;;;;;2.14;100.00;98602.34;5114915;27;20013;-75
2023/04/10 03:01:12;;;;;;;1999.90;999.90;;;;;;;2.14;100.00;98602.34;5133706;27;20046;-75
2023/04/10 03:03:37;;;;;;;1999.90;999.90;;;;;;;2.02;100.00;98592.53;5133785;27;20097;-74
2023/04/10 03:06:03;;;;;;;1999.90;999.90;;;;;;;2.03;100.00;98600.41;5137162;27;20539;-75
2023/04/10 03:08:29;;;;;;;1999.90;999.90;;;;;;;1.99;100.00;98599.19;5135672;27;20085;-75
2023/04/10 03:10:54;;;;;;;1999.90;999.90;;;;;;;1.86;100.00;98585.03;5132698;27;20109;-75
2023/04/10 03:13:22;;;;;;;1999.90;999.90;;;;;;;1.98;100.00;98608.31;5132252;27;20086;-76
2023/04/10 03:15:47;;;;;;;1999.90;999.90;;;;;;;1.85;100.00;98608.47;5131851;27;20023;-74
2023/04/10 03:18:12;;;;;;;1999.90;999.90;;;;;;;1.76;100.00;98590.09;5132021;27;20023;-76
2023/04/10 03:20:37;;;;;;;1999.90;999.90;;;;;;;1.83;100.00;98610.56;5132098;27;20498;-76
2023/04/10 03:23:04;;;;;;;1999.90;999.90;;;;;;;1.84;100.00;98601.44;5132198;27;20063;-76
2023/04/10 03:25:31;;;;;;;1999.90;999.90;;;;;;;1.69;100.00;98600.97;5133650;27;20034;-75
2023/04/10 03:27:56;;;;;;;1999.90;999.90;;;;;;;1.72;100.00;98602.41;5135401;27;20034;-76
2023/04/10 03:30:22;;;;;;;1999.90;999.90;;;;;;;1.73;100.00;98598.63;5131924;27;20023;-76
2023/04/10 03:32:47;;;;;;;1999.90;999.90;;;;;;;1.77;100.00;98616.03;5131567;27;20039;-75
2023/04/10 03:35:13;;;;;;;1999.90;999.90;;;;;;;1.75;100.00;98610.03;5132165;27;20019;-76
2023/04/10 03:37:38;;;;;;;1999.90;999.90;;;;;;;1.72;100.00;98608.63;5132128;27;20054;-76
2023/04/10 03:40:06;;;;;;;1999.90;999.90;;;;;;;1.68;100.00;98617.38;5113367;27;20030;-75
2023/04/10 03:42:32;;;;;;;1999.90;999.90;;;;;;;1.67;100.00;98618.41;5131736;27;20054;-75
2023/04/10 03:44:57;;;;;;;1999.90;999.90;;;;;;;1.56;100.00;98614.56;5131872;27;20074;-76
2023/04/10 03:47:22;;;;;;;1999.90;999.90;;;;;;;1.64;100.00;98619.66;5132042;27;20031;-75
2023/04/10 03:49:48;;;;;;;1999.90;999.90;;;;;;;1.52;100.00;98614.19;5132200;27;20019;-76
2023/04/10 03:52:13;;;;;;;1999.90;999.90;;;;;;;1.57;100.00;98616.22;5131726;27;20775;-76
2023/04/10 03:54:38;;;;;;;1999.90;999.90;;;;;;;1.53;100.00;98615.03;5131926;27;20118;-76
2023/04/10 03:57:04;;;;;;;1999.90;999.90;;;;;;;1.40;100.00;98607.88;5131706;28;20113;-76
2023/04/10 03:59:29;;;;;;;1999.90;999.90;;;;;;;1.36;100.00;98614.75;5132257;27;20027;-77
2023/04/10 04:01:54;;;;;;;1999.90;999.90;;;;;;;1.40;100.00;98621.34;5132037;28;20027;-76
2023/04/10 04:04:20;;;;;;;1999.90;999.90;;;;;;;1.46;100.00;98625.03;5130351;27;20026;-75
2023/04/10 04:06:45;;;;;;;1999.90;999.90;;;;;;;1.40;100.00;98620.53;5122653;28;20484;-75
2023/04/10 04:09:11;;;;;;;1999.90;999.90;;;;;;;1.40;100.00;98615.97;5110558;28;20054;-77
2023/04/10 04:11:37;;;;;;;1999.90;999.90;;;;;;;1.40;100.00;98615.97;5121790;28;20535;-76
2023/04/10 04:14:02;;;;;;;1999.90;999.90;;;;;;;1.39;100.00;98624.25;5112659;28;20392;-76
2023/04/10 04:16:28;;;;;;;1999.90;999.90;;;;;;;1.29;100.00;98610.44;5131491;27;20034;-75
2023/04/10 04:18:53;;;;;;;1999.90;999.90;;;;;;;1.30;100.00;98614.78;5131384;27;20023;-75
2023/04/10 04:21:18;;;;;;;1999.90;999.90;;;;;;;1.40;100.00;98629.44;5131183;28;20061;-76
2023/04/10 04:23:44;;;;;;;1999.90;999.90;;;;;;;1.34;100.00;98618.72;5102103;28;20099;-76
2023/04/10 04:26:09;;;;;;;1999.90;999.90;;;;;;;1.40;100.00;98621.34;5111066;28;20039;-76
2023/04/10 04:28:35;;;;;;;1999.90;999.90;;;;;;;1.48;100.00;98633.72;5111531;28;20030;-77
2023/04/10 04:31:00;;;;;;;1999.90;999.90;;;;;;;1.50;100.00;98610.06;5111011;28;20020;-76
2023/04/10 04:33:25;;;;;;;1999.90;999.90;;;;;;;1.64;100.00;98635.84;5111026;28;20034;-75
2023/04/10 04:35:51;;;;;;;1999.90;999.90;;;;;;;1.55;100.00;98623.69;5110831;28;20020;-75
2023/04/10 04:38:18;;;;;;;1999.90;999.90;;;;;;;1.67;100.00;98631.88;5111167;28;20028;-75
2023/04/10 04:40:44;;;;;;;1999.90;999.90;;;;;;;1.65;100.00;98634.81;5113393;28;20024;-75
2023/04/10 04:43:09;;;;;;;1999.90;999.90;;;;;;;1.71;100.00;98633.91;5112243;28;20123;-76
2023/04/10 04:45:35;;;;;;;1999.90;999.90;;;;;;;1.73;100.00;98637.22;5116976;27;20028;-76
2023/04/10 04:48:00;;;;;;;1999.90;999.90;;;;;;;1.73;100.00;98641.78;5136446;27;20023;-77
2023/04/10 04:50:25;;;;;;;1999.90;999.90;;;;;;;1.87;100.00;98644.13;5137083;27;20051;-77
2023/04/10 04:52:51;;;;;;;1999.90;999.90;;;;;;;1.93;100.00;98653.22;5138528;27;20019;-75
2023/04/10 04:55:16;;;;;;;1999.90;999.90;;;;;;;1.84;100.00;98649.97;5134554;27;20074;-75
2023/04/10 04:57:41;;;;;;;1999.90;999.90;;;;;;;1.92;100.00;98657.78;5134120;27;20058;-76
2023/04/10 05:00:07;;;;;;;1999.90;999.90;;;;;;;2.00;100.00;98659.38;5136036;27;20538;-77
2023/04/10 05:02:35;;;;;;;1999.90;999.90;;;;;;;2.04;100.00;98653.28;5141280;27;20027;-76
2023/04/10 05:05:00;;;;;;;1999.90;999.90;;;;;;;2.12;100.00;98663.81;5134469;27;20023;-76
2023/04/10 05:07:26;;;;;;;1999.90;999.90;;;;;;;2.23;100.00;98664.91;5134244;27;20023;-74
2023/04/10 05:09:51;;;;;;;1999.90;999.90;;;;;;;2.25;100.00;98673.63;5134048;27;20140;-76
2023/04/10 05:12:17;;;;;;;1999.90;999.90;;;;;;;2.42;100.00;98669.25;5133864;27;20031;-74
2023/04/10 05:14:43;;;;;;;1999.90;999.90;;;;;;;2.89;100.00;98680.31;5138631;27;20062;-75
2023/04/10 05:17:08;;;;;;;1999.90;999.90;;;;;;;3.46;100.00;98676.16;5137394;27;20035;-75
2023/04/10 05:19:34;;;;;;;1999.90;999.90;;;;;;;3.98;100.00;98691.50;5134262;27;20032;-78
2023/04/10 05:21:59;;;;;;;1999.90;999.90;;;;;;;4.08;100.00;98689.03;5133845;27;20030;-75
2023/04/10 05:24:24;;;;;;;1999.90;999.90;;;;;;;3.71;100.00;98682.19;5133831;27;20046;-76
2023/04/10 05:26:49;;;;;;;1999.90;999.90;;;;;;;3.40;100.00;98666.28;5133808;27;20405;-77
2023/04/10 05:29:15;;;;;;;1999.90;999.90;;;;;;;3.32;100.00;98686.34;5134134;27;20522;-77
2023/04/10 05:31:40;;;;;;;1999.90;999.90;;;;;;;3.30;100.00;98677.66;5133791;27;20692;-78
2023/04/10 05:34:05;;;;;;;1999.90;999.90;;;;;;;3.30;100.00;98674.13;5133598;27;20027;-76
2023/04/10 05:36:31;;;;;;;1999.90;999.90;;;;;;;3.51;100.00;98679.00;5115095;27;20125;-76
2023/04/10 05:38:56;;;;;;;1999.90;999.90;;;;;;;3.65;100.00;98683.97;5133848;27;20084;-76
2023/04/10 05:41:22;;;;;;;1999.90;999.90;;;;;;;3.71;100.00;98684.91;5133809;27;20829;-75
2023/04/10 05:43:47;;;;;;;1999.90;999.90;;;;;;;3.84;100.00;98690.09;5133405;27;20019;-75
2023/04/10 05:46:13;;;;;;;1999.90;999.90;;;;;;;3.95;100.00;98691.97;5133614;27;20470;-75
2023/04/10 05:48:38;;;;;;;1999.90;999.90;;;;;;;4.02;100.00;98689.16;5115368;27;20019;-76
2023/04/10 05:51:06;;;;;;;1999.90;999.90;;;;;;;4.17;100.00;98694.91;5133830;27;20023;-74
2023/04/10 05:53:34;;;;;;;1999.90;999.90;;;;;;;4.72;100.00;98698.88;5135347;27;20506;-81
2023/04/10 05:56:00;;;;;;;1999.90;999.90;;;;;;;5.21;100.00;98707.41;5135322;27;20106;-80
2023/04/10 05:58:27;;;;;;;1999.90;999.90;;;;;;;5.20;100.00;98701.16;5117813;27;20134;-88
2023/04/10 06:00:53;;;;;;;1999.90;999.90;;;;;;;5.15;100.00;98697.53;5119956;27;20495;-79
2023/04/10 06:03:21;;;;;;;1999.90;999.90;;;;;;;5.52;100.00;98714.22;5114119;28;20016;-77
2023/04/10 06:05:47;;;;;;;1999.90;999.90;;;;;;;5.60;100.00;98697.56;5113744;28;20055;-77
2023/04/10 06:08:13;;;;;;;1999.90;999.90;;;;;;;5.40;100.00;98709.69;5113526;28;20056;-81
2023/04/10 06:10:41;;;;;;;1999.90;999.90;;;;;;;5.05;100.00;98698.16;5114686;28;20028;-77
2023/04/10 06:13:07;;;;;;;1999.90;999.90;;;;;;;5.07;100.00;98706.91;5113786;28;20472;-85
2023/04/10 06:15:32;;;;;;;1999.90;999.90;;;;;;;5.18;100.00;98703.31;5115635;28;20015;-80
2023/04/10 06:17:57;;;;;;;1999.90;999.90;;;;;;;5.66;100.00;98702.84;5117269;28;20042;-84
2023/04/10 06:20:23;;;;;;;1999.90;999.90;;;;;;;5.73;100.00;98705.41;5115243;28;20031;-81
2023/04/10 06:22:48;;;;;;;1999.90;999.90;;;;;;;5.41;100.00;98707.81;5113747;28;20016;-81
2023/04/10 06:25:15;;;;;;;1999.90;999.90;;;;;;;5.19;100.00;98707.69;5112699;28;20075;-77
2023/04/10 06:27:40;;;;;;;1999.90;999.90;;;;;;;5.19;100.00;98704.97;5113248;28;20128;-80
2023/04/10 06:30:06;;;;;;;1999.90;999.90;;;;;;;5.08;100.00;98699.56;5113127;28;20484;-77
2023/04/10 06:32:32;;;;;;;1999.90;999.90;;;;;;;5.26;100.00;98711.03;5113227;28;20488;-75
2023/04/10 06:34:59;;;;;;;1999.90;999.90;;;;;;;5.27;100.00;98701.84;5112503;28;20050;-77
2023/04/10 06:37:30;;;;;;;1999.90;999.90;;;;;;;5.59;100.00;98712.19;5114273;28;20027;-75
2023/04/10 06:40:07;;;;;;;1999.90;999.90;;;;;;;5.67;100.00;98698.22;5127838;27;20071;-77
2023/04/10 06:42:34;;;;;;;1999.90;999.90;;;;;;;5.74;100.00;98712.44;5098584;27;20038;-76
2023/04/10 06:45:00;;;;;;;1999.90;999.90;;;;;;;5.95;100.00;98709.06;5136412;27;20030;-78
2023/04/10 06:47:25;;;;;;;1999.90;999.90;;;;;;;6.09;100.00;98699.50;5132491;27;20035;-76
2023/04/10 06:49:51;;;;;;;1999.90;999.90;;;;;;;6.13;100.00;98691.66;5132061;27;20514;-78
2023/04/10 06:52:17;;;;;;;1999.90;999.90;;;;;;;6.31;100.00;98700.38;5131640;27;20030;-76
2023/04/10 06:54:42;;;;;;;1999.90;999.90;;;;;;;6.26;100.00;98705.75;5132024;27;20023;-80
2023/04/10 06:57:07;;;;;;;1999.90;999.90;;;;;;;6.48;100.00;98712.00;5113674;27;20038;-79
2023/04/10 06:59:34;;;;;;;1999.90;999.90;;;;;;;6.68;100.00;98707.94;5135796;27;20023;-73
2023/04/10 07:02:00;;;;;;;1999.90;999.90;;;;;;;6.78;100.00;98705.34;5111282;27;20087;-73
2023/04/10 07:04:25;;;;;;;1999.90;999.90;;;;;;;6.94;100.00;98704.47;5131276;27;20015;-81
2023/04/10 07:06:50;;;;;;;1999.90;999.90;;;;;;;6.88;100.00;98702.78;5131504;27;20019;-74
2023/04/10 07:09:16;;;;;;;1999.90;999.90;;;;;;;7.25;100.00;98702.94;5131715;27;20039;-73
2023/04/10 07:11:41;;;;;;;1999.90;999.90;;;;;;;7.33;100.00;98706.00;5131407;27;20455;-74
2023/04/10 07:14:06;;;;;;;1999.90;999.90;;;;;;;7.82;100.00;98719.56;5112958;27;20075;-72
2023/04/10 07:16:32;;;;;;;1999.90;999.90;;;;;;;7.87;100.00;98714.16;5131466;27;20031;-73
2023/04/10 07:19:00;;;;;;;1999.90;999.90;;;;;;;8.19;100.00;98709.53;5131594;27;20027;-74
2023/04/10 07:21:26;;;;;;;1999.90;999.90;;;;;;;8.72;100.00;98724.06;5131962;27;20387;-72
2023/04/10 07:23:51;;;;;;;1999.90;999.90;;;;;;;10.44;100.00;98726.13;5100610;27;20015;-80
2023/04/10 07:26:19;;;;;;;1999.90;999.90;;;;;;;11.76;88.58;98724.56;5133800;27;20479;-72
2023/04/10 07:28:45;;;;;;;1999.90;999.90;;;;;;;12.46;81.20;98730.63;5131858;27;20026;-73
2023/04/10 07:31:10;;;;;;;1999.90;999.90;;;;;;;14.48;67.06;98733.50;5131479;27;20031;-73
2023/04/10 07:33:37;;;;;;;1999.90;999.90;;;;;;;15.53;58.73;98727.09;5131486;27;20480;-73
2023/04/10 07:36:06;;;;;;;1999.90;999.90;;;;;;;15.26;57.59;98729.84;5145661;27;20043;-73
2023/04/10 07:38:32;;;;;;;1999.90;999.90;;;;;;;16.24;54.64;98728.22;5130135;27;20160;-72
2023/04/10 07:40:57;;;;;;;1999.90;999.90;;;;;;;16.07;53.85;98728.91;5129432;27;20519;-73
2023/04/10 07:43:23;;;;;;;1999.90;999.90;;;;;;;14.27;58.03;98718.41;5133463;27;20031;-74
2023/04/10 07:45:49;;;;;;;1999.90;999.90;;;;;;;15.60;55.03;98716.44;5132648;27;20050;-81
2023/04/10 07:48:14;;;;;;;1999.90;999.90;;;;;;;16.94;49.95;98734.75;5133633;27;20067;-87
2023/04/10 07:50:40;;;;;;;1999.90;999.90;;;;;;;18.74;44.61;98723.13;5134141;27;20026;-89
2023/04/10 07:53:08;;;;;;;1999.90;999.90;;;;;;;17.75;45.39;98724.13;5131705;27;20502;-72
2023/04/10 07:55:42;;;;;;;1999.90;999.90;;;;;;;17.24;46.93;98729.47;5127057;27;20384;-74
2023/04/10 07:58:07;;;;;;;1999.90;999.90;;;;;;;16.99;46.58;98719.94;5129734;28;20034;-73
2023/04/10 08:00:33;;;;;;;1999.90;999.90;;;;;;;17.13;47.15;98724.22;5129926;28;20023;-71
2023/04/10 08:02:59;;;;;;;1999.90;999.90;;;;;;;18.51;43.54;98719.75;5129697;28;20023;-71
2023/04/10 08:05:24;;;;;;;1999.90;999.90;;;;;;;17.05;46.71;98729.72;5129713;28;20164;-73
2023/04/10 08:07:50;;;;;;;1999.90;999.90;;;;;;;17.75;44.20;98721.38;5129356;28;20144;-72
2023/04/10 08:10:15;;;;;;;1999.90;999.90;;;;;;;18.97;41.71;98719.00;5129874;28;20113;-71
2023/04/10 08:12:40;;;;;;;1999.90;999.90;;;;;;;18.35;42.90;98724.16;5129516;28;20038;-72
2023/04/10 08:15:06;;;;;;;1999.90;999.90;;;;;;;16.69;45.39;98709.72;5130915;28;20058;-76
2023/04/10 08:17:31;;;;;;;1999.90;999.90;;;;;;;18.22;42.39;98713.25;5126107;27;20176;-73
2023/04/10 08:19:57;;;;;;;1999.90;999.90;;;;;;;18.93;40.91;98718.03;5114992;27;20027;-87
2023/04/10 08:22:22;;;;;;;1999.90;999.90;;;;;;;18.35;41.13;98718.63;5137630;27;20030;-82
2023/04/10 08:24:48;;;;;;;1999.90;999.90;;;;;;;19.66;39.63;98721.50;5137896;27;20472;-78
2023/04/10 08:27:15;;;;;;;1999.90;999.90;;;;;;;20.20;36.89;98723.19;5121393;27;20458;-80
2023/04/10 08:29:40;;;;;;;1999.90;999.90;;;;;;;19.84;37.22;98720.22;5123023;27;20023;-86
2023/04/10 08:32:05;;;;;;;1999.90;999.90;;;;;;;20.52;36.24;98715.25;5143504;27;20027;-88
2023/04/10 08:34:31;;;;;;;1999.90;999.90;;;;;;;21.37;34.82;98724.66;5142582;27;20031;-85
2023/04/10 08:36:56;;;;;;;1999.90;999.90;;;;;;;20.80;35.60;98708.75;5145969;27;20035;-88
2023/04/10 08:39:23;;;;;;;1999.90;999.90;;;;;;;20.11;36.38;98702.22;5123928;27;20498;-91
2023/04/10 08:41:48;;;;;;;1999.90;999.90;;;;;;;20.53;35.43;98708.56;5125062;27;20030;-90
2023/04/10 08:44:13;;;;;;;1999.90;999.90;;;;;;;20.12;35.88;98710.22;5125251;27;20023;-85
2023/04/10 08:46:42;;;;;;;1999.90;999.90;;;;;;;20.34;35.27;98711.84;5141308;27;20023;-82
2023/04/10 08:49:10;;;;;;;1999.90;999.90;;;;;;;19.35;36.79;98704.31;5122622;27;20015;-84
2023/04/10 08:51:41;;;;;;;1999.90;999.90;;;;;;;19.44;36.74;98700.38;5141187;27;20498;-83
2023/04/10 08:54:13;;;;;;;1999.90;999.90;;;;;;;21.02;34.24;98703.97;5157320;27;20031;-83
2023/04/10 08:56:41;;;;;;;1999.90;999.90;;;;;;;21.54;33.11;98707.72;5157146;27;20023;-81
2023/04/10 08:59:07;;;;;;;1999.90;999.90;;;;;;;21.95;31.57;98706.66;5120664;27;20062;-84
2023/04/10 09:01:34;;;;;;;1999.90;999.90;;;;;;;21.33;32.51;98698.69;5142522;27;20472;-81
2023/04/10 09:03:59;;;;;;;1999.90;999.90;;;;;;;22.13;32.32;98699.66;5143066;27;20031;-83
2023/04/10 09:06:26;;;;;;;1999.90;999.90;;;;;;;21.18;32.42;98693.78;5159076;27;20035;-83
2023/04/10 09:08:51;;;;;;;1999.90;999.90;;;;;;;22.34;31.54;98694.69;5146888;27;20101;-81
2023/04/10 09:11:17;;;;;;;1999.90;999.90;;;;;;;22.39;30.70;98680.50;5130226;27;20023;-81
2023/04/10 09:13:43;;;;;;;1999.90;999.90;;;;;;;19.84;33.46;98680.53;5147346;27;20019;-87
2023/04/10 09:16:10;;;;;;;1999.90;999.90;;;;;;;19.89;33.78;98678.34;5146644;27;20024;-82
2023/04/10 09:18:42;;;;;;;1999.90;999.90;;;;;;;20.50;32.79;98670.31;5144244;27;20033;-82
2023/04/10 09:21:19;;;;;;;1999.90;999.90;;;;;;;19.32;34.50;98682.81;5146471;27;20475;-82
2023/04/10 09:23:46;;;;;;;1999.90;999.90;;;;;;;20.67;32.27;98675.72;5126598;27;20376;-82
2023/04/10 09:26:23;;;;;;;1999.90;999.90;;;;;;;21.11;31.07;98677.66;5124256;27;20072;-85
2023/04/10 09:28:55;;;;;;;1999.90;999.90;;;;;;;21.16;31.64;98685.78;5142342;27;20019;-84
2023/04/10 09:31:30;;;;;;;1999.90;999.90;;;;;;;21.40;31.09;98682.19;5130466;27;20027;-89
2023/04/10 09:34:14;;;;;;;1999.90;999.90;;;;;;;20.35;31.84;98673.75;5160555;27;20071;-93
2023/04/10 09:37:00;;;;;;;1999.90;999.90;;;;;;;20.78;31.44;98668.53;5143177;27;20071;-82
2023/04/10 09:39:31;;;;;;;;;;;;;;;20.61;31.76;98669.53;5157904;27;20490;-89
2023/04/10 09:41:57;;;;;;;1999.90;999.90;;;;;;;20.80;32.28;98657.88;5145632;27;19934;-84
2023/04/10 09:44:34;;;;;;;1999.90;999.90;;;;;;;21.43;30.56;98675.94;5121898;27;20472;-82
2023/04/10 09:47:20;;;;;;;1999.90;999.90;;;;;;;20.10;31.70;98661.69;5141147;27;20031;-80
2023/04/10 09:49:47;;;;;;;1999.90;999.90;;;;;;;21.14;30.85;98663.09;5139354;27;20088;-81
2023/04/10 09:52:27;;;;;;;1999.90;999.90;;;;;;;20.06;32.05;98657.97;5140584;27;20087;-82
2023/04/10 09:54:57;;;;;;;1999.90;999.90;;;;;;;19.46;33.37;98652.84;5141754;27;20027;-83
2023/04/10 09:57:24;;;;;;;1999.90;999.90;;;;;;;20.31;32.63;98640.28;5139608;27;20035;-89
2023/04/10 10:00:00;;;;;;;1999.90;999.90;;;;;;;17.02;36.90;98642.72;5139361;27;20030;-82
2023/04/10 10:02:29;;;;;;;1999.90;999.90;;;;;;;18.74;35.39;98642.75;5140436;27;20015;-87
2023/04/10 10:04:57;;;;;;;1999.90;999.90;;;;;;;19.77;33.17;98637.44;5124538;27;20057;-83
2023/04/10 10:07:22;;;;;;;1999.90;999.90;;;;;;;18.44;35.60;98628.00;5140883;27;20011;-86
2023/04/10 10:09:50;;;;;;;1999.90;999.90;;;;;;;18.80;35.78;98635.06;5138264;27;20046;-82
2023/04/10 10:12:21;;;;;;;1999.90;999.90;;;;;;;19.97;33.42;98633.06;5140772;27;20035;-81
2023/04/10 10:14:58;;;;;;;1999.90;999.90;;;;;;;19.33;33.19;98626.16;5141137;27;20019;-86
2023/04/10 10:17:28;;;;;;;1999.90;999.90;;;;;;;17.25;37.56;98606.69;5142670;27;20122;-83
2023/04/10 10:20:12;;;;;;;1999.90;999.90;;;;;;;19.52;34.20;98619.03;5144185;27;20468;-82
2023/04/10 10:22:37;;;;;;;1999.90;999.90;;;;;;;19.14;33.39;98613.53;5138271;27;20023;-82
2023/04/10 10:25:03;;;;;;;1999.90;999.90;;;;;;;18.43;34.28;98611.69;5139473;27;20042;-85
2023/04/10 10:27:35;;;;;;;1999.90;999.90;;;;;;;18.12;34.93;98601.66;5136934;27;20023;-84
2023/04/10 10:30:02;;;;;;;1999.90;999.90;;;;;;;18.26;34.60;98609.78;5119867;27;20472;-84
2023/04/10 10:32:28;;;;;;;1999.90;999.90;;;;;;;18.64;35.09;98602.34;5120836;27;20061;-84
2023/04/10 10:34:55;;;;;;;1999.90;999.90;;;;;;;20.25;30.90;98609.09;5139682;27;20019;-82
2023/04/10 10:37:20;;;;;;;1999.90;999.90;;;;;;;20.65;30.30;98605.72;5138596;27;20115;-82
2023/04/10 10:39:59;;;;;;;1999.90;999.90;;;;;;;18.79;33.40;98600.19;5139704;27;20047;-86
2023/04/10 10:42:24;;;;;;;1999.90;999.90;;;;;;;18.49;33.78;98596.50;5136055;27;20075;-81
2023/04/10 10:45:05;;;;;;;1999.90;999.90;;;;;;;18.31;33.80;98590.22;5136537;27;20027;-82
2023/04/10 10:47:33;;;;;;;1999.90;999.90;;;;;;;18.78;33.15;98582.72;5135285;27;20426;-82
2023/04/10 10:50:00;;;;;;;1999.90;999.90;;;;;;;18.54;33.75;98588.06;5133754;27;20034;-85
2023/04/10 10:52:56;;;;;;;1999.90;999.90;;;;;;;18.76;32.95;98571.19;5133295;27;20019;-89
2023/04/10 10:55:21;;;;;;;1999.90;999.90;;;;;;;17.13;34.92;98574.94;5134790;27;20027;-89